createdAt,value
2017-01-30T00:00:27.695Z,86.83
2017-01-30T00:01:33.857Z,86.26
2017-01-30T00:02:38.058Z,86.16
2017-01-30T00:03:43.290Z,86.26
2017-01-30T00:04:48.458Z,86.45
2017-01-30T00:05:54.625Z,86.45
2017-01-30T00:07:00.795Z,86.45
2017-01-30T00:08:06.027Z,86.64
2017-01-30T00:09:12.205Z,86.35
2017-01-30T00:10:18.375Z,86.45
2017-01-30T00:11:23.667Z,86.35
2017-01-30T00:12:29.833Z,86.35
2017-01-30T00:14:39.216Z,86.35
2017-01-30T00:15:45.380Z,86.26
2017-01-30T00:16:49.618Z,86.16
2017-01-30T00:17:55.796Z,86.07
2017-01-30T00:19:02.016Z,86.07
2017-01-30T00:20:07.170Z,86.16
2017-01-30T00:21:12.363Z,86.16
2017-01-30T00:22:18.643Z,86.35
2017-01-30T00:23:23.865Z,86.26
2017-01-30T00:24:29.045Z,86.16
2017-01-30T00:25:35.222Z,86.35
2017-01-30T00:26:39.423Z,86.16
2017-01-30T00:27:44.626Z,86.35
2017-01-30T00:28:49.803Z,86.26
2017-01-30T00:29:55.961Z,86.35
2017-01-30T00:31:02.129Z,86.26
2017-01-30T00:32:06.333Z,86.26
2017-01-30T00:33:11.574Z,86.16
2017-01-30T00:34:16.756Z,86.64
2017-01-30T00:35:22.973Z,86.35
2017-01-30T00:36:27.201Z,86.07
2017-01-30T00:37:31.400Z,86.26
2017-01-30T00:38:36.571Z,86.35
2017-01-30T00:39:42.737Z,86.16
2017-01-30T00:40:47.945Z,86.45
2017-01-30T00:41:54.180Z,85.88
2017-01-30T00:42:58.408Z,85.88
2017-01-30T00:44:03.729Z,86.07
2017-01-30T00:45:08.918Z,86.35
2017-01-30T00:46:12.192Z,86.55
2017-01-30T00:47:17.388Z,86.35
2017-01-30T00:48:23.554Z,86.16
2017-01-30T00:49:26.784Z,86.07
2017-01-30T00:50:31.954Z,85.88
2017-01-30T00:51:37.154Z,86.07
2017-01-30T00:52:43.339Z,85.88
2017-01-30T00:53:48.516Z,85.88
2017-01-30T00:54:53.728Z,85.5
2017-01-30T00:55:58.927Z,85.31
2017-01-30T00:57:05.082Z,85.5
2017-01-30T00:58:10.258Z,85.6
2017-01-30T00:59:16.423Z,85.69
2017-01-30T01:00:22.626Z,85.78
2017-01-30T01:01:28.758Z,85.78
2017-01-30T01:02:34.995Z,85.6
2017-01-30T01:03:41.149Z,85.6
2017-01-30T01:04:46.350Z,85.78
2017-01-30T01:05:52.513Z,85.78
2017-01-30T01:06:58.680Z,85.6
2017-01-30T01:08:04.847Z,85.97
2017-01-30T01:09:11.108Z,85.78
2017-01-30T01:10:17.284Z,85.78
2017-01-30T01:11:23.521Z,85.69
2017-01-30T01:12:27.640Z,85.88
2017-01-30T01:13:32.834Z,85.97
2017-01-30T01:14:37.036Z,85.6
2017-01-30T01:15:42.291Z,85.69
2017-01-30T01:16:45.580Z,85.6
2017-01-30T01:17:50.807Z,85.6
2017-01-30T01:18:55.999Z,85.69
2017-01-30T01:20:00.199Z,85.69
2017-01-30T01:21:06.369Z,85.69
2017-01-30T01:22:11.569Z,85.69
2017-01-30T01:23:14.834Z,85.78
2017-01-30T01:24:20.045Z,85.5
2017-01-30T01:25:25.234Z,85.5
2017-01-30T01:26:30.436Z,85.6
2017-01-30T01:27:35.643Z,85.69
2017-01-30T01:28:40.857Z,85.5
2017-01-30T01:29:45.108Z,85.6
2017-01-30T01:30:50.271Z,85.6
2017-01-30T01:31:55.449Z,85.6
2017-01-30T01:33:01.627Z,85.69
2017-01-30T01:34:06.826Z,85.78
2017-01-30T01:35:11.072Z,85.31
2017-01-30T01:36:16.370Z,85.5
2017-01-30T01:37:22.536Z,85.5
2017-01-30T01:38:28.707Z,85.69
2017-01-30T01:39:33.957Z,85.31
2017-01-30T01:40:40.123Z,85.5
2017-01-30T01:41:44.409Z,85.69
2017-01-30T01:42:49.622Z,85.41
2017-01-30T01:43:54.818Z,85.69
2017-01-30T01:45:00.018Z,85.6
2017-01-30T01:46:06.188Z,85.88
2017-01-30T01:47:12.360Z,85.78
2017-01-30T01:48:17.541Z,85.97
2017-01-30T01:49:22.716Z,85.78
2017-01-30T01:50:28.881Z,85.78
2017-01-30T01:51:35.046Z,85.69
2017-01-30T01:52:41.213Z,85.69
2017-01-30T01:53:47.377Z,85.6
2017-01-30T01:54:53.600Z,85.88
2017-01-30T01:55:59.764Z,85.6
2017-01-30T01:57:04.964Z,85.6
2017-01-30T01:58:10.163Z,85.88
2017-01-30T01:59:14.406Z,85.69
2017-01-30T02:00:18.605Z,86.16
2017-01-30T02:01:23.817Z,86.16
2017-01-30T02:02:29.989Z,86.16
2017-01-30T02:03:35.222Z,86.64
2017-01-30T02:04:41.357Z,86.26
2017-01-30T02:05:45.604Z,86.83
2017-01-30T02:06:50.792Z,87.02
2017-01-30T02:07:56.984Z,86.64
2017-01-30T02:09:03.178Z,86.74
2017-01-30T02:10:09.313Z,87.3
2017-01-30T02:11:14.499Z,87.3
2017-01-30T02:12:19.710Z,87.3
2017-01-30T02:13:25.875Z,87.21
2017-01-30T02:14:31.112Z,87.4
2017-01-30T02:15:37.276Z,87.97
2017-01-30T02:16:42.476Z,87.4
2017-01-30T02:17:46.707Z,87.59
2017-01-30T02:18:51.906Z,87.4
2017-01-30T02:19:55.169Z,87.49
2017-01-30T02:20:59.414Z,87.4
2017-01-30T02:22:05.601Z,87.59
2017-01-30T02:23:11.730Z,88.06
2017-01-30T02:24:16.957Z,87.59
2017-01-30T02:25:22.166Z,87.77
2017-01-30T02:26:26.379Z,87.97
2017-01-30T02:27:31.614Z,87.87
2017-01-30T02:28:37.794Z,88.35
2017-01-30T02:29:42.918Z,88.54
2017-01-30T02:30:48.132Z,88.73
2017-01-30T02:31:53.331Z,88.25
2017-01-30T02:32:59.602Z,88.16
2017-01-30T02:34:03.820Z,88.54
2017-01-30T02:35:10.057Z,88.25
2017-01-30T02:36:16.215Z,88.73
2017-01-30T02:37:21.409Z,88.54
2017-01-30T02:38:27.576Z,88.63
2017-01-30T02:39:33.748Z,88.82
2017-01-30T02:40:39.016Z,88.35
2017-01-30T02:41:43.503Z,89.01
2017-01-30T02:42:49.663Z,88.92
2017-01-30T02:43:54.923Z,88.35
2017-01-30T02:45:00.126Z,88.44
2017-01-30T02:46:05.291Z,88.82
2017-01-30T02:47:11.455Z,88.25
2017-01-30T02:48:16.687Z,88.44
2017-01-30T02:49:22.806Z,88.25
2017-01-30T02:50:28.153Z,88.44
2017-01-30T02:51:33.357Z,88.35
2017-01-30T02:52:38.528Z,88.54
2017-01-30T02:53:42.757Z,88.54
2017-01-30T02:54:47.918Z,88.35
2017-01-30T02:55:52.176Z,88.63
2017-01-30T02:56:58.371Z,88.63
2017-01-30T02:58:03.635Z,88.82
2017-01-30T02:59:08.808Z,89.01
2017-01-30T03:00:14.940Z,89.01
2017-01-30T03:01:20.108Z,89.01
2017-01-30T03:02:26.272Z,88.44
2017-01-30T03:03:31.527Z,88.73
2017-01-30T03:04:37.670Z,88.54
2017-01-30T03:05:43.819Z,89.11
2017-01-30T03:06:49.019Z,89.01
2017-01-30T03:07:52.384Z,89.11
2017-01-30T03:08:58.617Z,88.73
2017-01-30T03:10:04.797Z,89.29
2017-01-30T03:11:10.124Z,89.58
2017-01-30T03:12:16.301Z,89.58
2017-01-30T03:13:22.422Z,89.2
2017-01-30T03:14:26.622Z,89.39
2017-01-30T03:15:31.823Z,89.86
2017-01-30T03:16:37.013Z,89.86
2017-01-30T03:17:42.316Z,89.86
2017-01-30T03:18:48.478Z,89.77
2017-01-30T03:19:52.692Z,89.67
2017-01-30T03:20:56.917Z,89.67
2017-01-30T03:22:02.115Z,89.48
2017-01-30T03:23:05.348Z,89.96
2017-01-30T03:24:08.581Z,89.67
2017-01-30T03:25:13.780Z,89.29
2017-01-30T03:26:18.013Z,89.58
2017-01-30T03:27:21.283Z,89.58
2017-01-30T03:28:26.481Z,89.29
2017-01-30T03:29:29.717Z,89.01
2017-01-30T03:30:34.077Z,89.2
2017-01-30T03:31:40.250Z,89.58
2017-01-30T03:32:46.409Z,89.77
2017-01-30T03:33:52.623Z,89.48
2017-01-30T03:34:57.816Z,89.39
2017-01-30T03:36:03.037Z,89.48
2017-01-30T03:37:09.200Z,89.39
2017-01-30T03:38:14.400Z,89.48
2017-01-30T03:39:20.571Z,89.48
2017-01-30T03:40:25.773Z,89.2
2017-01-30T03:41:30.948Z,89.01
2017-01-30T03:42:36.146Z,89.58
2017-01-30T03:43:42.362Z,89.58
2017-01-30T03:44:47.497Z,89.39
2017-01-30T03:45:53.649Z,90.05
2017-01-30T03:46:59.817Z,89.77
2017-01-30T03:48:05.020Z,89.86
2017-01-30T03:49:11.179Z,90.05
2017-01-30T03:50:17.353Z,89.39
2017-01-30T03:51:23.533Z,89.86
2017-01-30T03:52:27.758Z,89.77
2017-01-30T03:53:33.928Z,89.58
2017-01-30T03:54:40.102Z,89.86
2017-01-30T03:55:45.303Z,89.2
2017-01-30T03:56:51.504Z,89.43
2017-01-30T03:57:56.659Z,89.96
2017-01-30T03:59:02.836Z,89.77
2017-01-30T04:00:07.069Z,89.86
2017-01-30T04:01:12.256Z,89.58
2017-01-30T04:02:18.531Z,90.05
2017-01-30T04:03:23.802Z,90.15
2017-01-30T04:04:29.924Z,90.43
2017-01-30T04:05:34.153Z,90.15
2017-01-30T04:06:39.355Z,91
2017-01-30T04:07:43.568Z,91.09
2017-01-30T04:08:49.737Z,90.81
2017-01-30T04:09:55.999Z,90.67
2017-01-30T04:11:00.230Z,90.57
2017-01-30T04:12:04.458Z,90.86
2017-01-30T04:13:09.702Z,91.33
2017-01-30T04:14:13.902Z,91.42
2017-01-30T04:15:20.074Z,91.61
2017-01-30T04:16:25.275Z,90.76
2017-01-30T04:17:31.442Z,90.76
2017-01-30T04:18:37.609Z,90.67
2017-01-30T04:19:43.785Z,90.67
2017-01-30T04:20:47.982Z,90.48
2017-01-30T04:21:54.164Z,90.76
2017-01-30T04:22:59.360Z,90.38
2017-01-30T04:24:04.554Z,90.29
2017-01-30T04:25:10.744Z,90.38
2017-01-30T04:26:14.025Z,90.38
2017-01-30T04:27:20.187Z,90.1
2017-01-30T04:28:26.352Z,89.81
2017-01-30T04:29:31.587Z,89.72
2017-01-30T04:30:35.809Z,89.62
2017-01-30T04:31:40.979Z,90
2017-01-30T04:32:46.208Z,90
2017-01-30T04:33:52.377Z,89.43
2017-01-30T04:34:58.563Z,89.34
2017-01-30T04:36:03.745Z,89.34
2017-01-30T04:37:08.933Z,89.62
2017-01-30T04:38:14.136Z,89.62
2017-01-30T04:39:19.518Z,89.43
2017-01-30T04:40:25.682Z,89.34
2017-01-30T04:41:31.845Z,89.91
2017-01-30T04:42:36.085Z,89.43
2017-01-30T04:43:41.279Z,89.43
2017-01-30T04:44:45.478Z,89.62
2017-01-30T04:45:51.651Z,90.57
2017-01-30T04:46:56.857Z,90.38
2017-01-30T04:48:01.109Z,90.48
2017-01-30T04:49:06.309Z,90.38
2017-01-30T04:50:12.472Z,90.29
2017-01-30T04:51:17.655Z,90.76
2017-01-30T04:52:22.824Z,90.86
2017-01-30T04:53:28.989Z,91.24
2017-01-30T04:54:34.183Z,91.71
2017-01-30T04:55:39.384Z,92.09
2017-01-30T04:56:44.550Z,92.09
2017-01-30T04:57:49.801Z,92.38
2017-01-30T04:58:55.003Z,92.8
2017-01-30T05:00:01.213Z,93.04
2017-01-30T05:01:06.375Z,93.46
2017-01-30T05:02:11.622Z,93.37
2017-01-30T05:03:17.786Z,93.75
2017-01-30T05:04:23.957Z,94.13
2017-01-30T05:05:29.187Z,93.94
2017-01-30T05:06:35.361Z,94.42
2017-01-30T05:07:41.515Z,94.51
2017-01-30T05:08:46.711Z,94.32
2017-01-30T05:09:50.913Z,94.51
2017-01-30T05:10:55.141Z,94.32
2017-01-30T05:12:00.346Z,94.32
2017-01-30T05:13:05.536Z,94.23
2017-01-30T05:14:11.711Z,94.32
2017-01-30T05:15:16.909Z,94.6
2017-01-30T05:16:21.172Z,94.23
2017-01-30T05:17:27.323Z,94.13
2017-01-30T05:18:33.516Z,94.04
2017-01-30T05:19:39.656Z,94.23
2017-01-30T05:20:44.850Z,94.13
2017-01-30T05:21:51.020Z,94.32
2017-01-30T05:22:56.218Z,94.79
2017-01-30T05:24:02.457Z,94.6
2017-01-30T05:25:05.681Z,93.75
2017-01-30T05:26:10.888Z,94.13
2017-01-30T05:27:15.090Z,93.94
2017-01-30T05:28:19.313Z,93.94
2017-01-30T05:29:24.517Z,93.94
2017-01-30T05:30:27.914Z,94.04
2017-01-30T05:31:33.111Z,94.04
2017-01-30T05:32:37.371Z,93.84
2017-01-30T05:33:42.542Z,94.32
2017-01-30T05:34:48.713Z,93.84
2017-01-30T05:35:54.881Z,93.94
2017-01-30T05:37:00.132Z,93.65
2017-01-30T05:38:06.290Z,93.75
2017-01-30T05:39:11.495Z,93.75
2017-01-30T05:40:15.731Z,93.94
2017-01-30T05:41:20.015Z,93.94
2017-01-30T05:43:31.376Z,93.94
2017-01-30T05:44:36.578Z,93.8
2017-01-30T05:45:42.747Z,93.99
2017-01-30T05:46:48.972Z,94.08
2017-01-30T05:47:55.139Z,94.08
2017-01-30T05:49:01.317Z,93.99
2017-01-30T05:50:07.486Z,94.08
2017-01-30T05:51:12.685Z,93.8
2017-01-30T05:52:18.869Z,94.18
2017-01-30T05:53:24.118Z,94.08
2017-01-30T05:54:29.313Z,93.99
2017-01-30T05:55:35.613Z,93.8
2017-01-30T05:56:41.763Z,93.7
2017-01-30T05:57:46.930Z,93.51
2017-01-30T05:58:52.099Z,93.7
2017-01-30T05:59:58.270Z,93.99
2017-01-30T06:01:04.445Z,93.61
2017-01-30T06:02:09.797Z,93.51
2017-01-30T06:03:14.895Z,93.51
2017-01-30T06:04:18.143Z,93.51
2017-01-30T06:05:23.337Z,93.41
2017-01-30T06:06:29.586Z,93.41
2017-01-30T06:07:35.748Z,93.41
2017-01-30T06:08:40.959Z,93.32
2017-01-30T06:09:47.084Z,93.51
2017-01-30T06:10:52.302Z,93.8
2017-01-30T06:11:57.494Z,93.8
2017-01-30T06:13:02.725Z,93.99
2017-01-30T06:14:08.889Z,94.18
2017-01-30T06:15:14.228Z,93.89
2017-01-30T06:17:25.586Z,93.99
2017-01-30T06:18:30.759Z,93.7
2017-01-30T06:19:34.991Z,94.46
2017-01-30T06:20:40.194Z,94.37
2017-01-30T06:21:45.403Z,94.27
2017-01-30T06:22:49.643Z,94.27
2017-01-30T06:23:54.832Z,94.46
2017-01-30T06:25:01.020Z,94.65
2017-01-30T06:26:06.220Z,94.37
2017-01-30T06:27:10.388Z,94.18
2017-01-30T06:28:16.638Z,94.84
2017-01-30T06:29:20.829Z,94.93
2017-01-30T06:30:26.029Z,95.31
2017-01-30T06:31:32.197Z,94.84
2017-01-30T06:32:36.434Z,95.12
2017-01-30T06:33:42.604Z,95.03
2017-01-30T06:34:48.779Z,95.41
2017-01-30T06:35:53.977Z,95.5
2017-01-30T06:36:58.181Z,95.69
2017-01-30T06:38:03.392Z,95.88
2017-01-30T06:39:09.572Z,95.5
2017-01-30T06:40:13.802Z,95.98
2017-01-30T06:41:20.103Z,96.45
2017-01-30T06:42:23.271Z,96.17
2017-01-30T06:43:28.473Z,96.26
2017-01-30T06:44:32.739Z,96.26
2017-01-30T06:45:38.925Z,96.26
2017-01-30T06:46:45.088Z,96.83
2017-01-30T06:47:50.396Z,96.92
2017-01-30T06:50:01.772Z,96.64
2017-01-30T06:51:07.935Z,96.55
2017-01-30T06:52:12.166Z,96.64
2017-01-30T06:53:17.418Z,97.12
2017-01-30T06:54:22.588Z,97.31
2017-01-30T06:55:28.753Z,97.12
2017-01-30T06:56:34.917Z,97.31
2017-01-30T06:57:41.175Z,97.21
2017-01-30T06:58:46.375Z,96.83
2017-01-30T06:59:52.546Z,97.21
2017-01-30T07:00:57.718Z,97.21
2017-01-30T07:02:02.887Z,97.21
2017-01-30T07:03:09.050Z,97.21
2017-01-30T07:04:15.221Z,97.02
2017-01-30T07:05:21.396Z,96.83
2017-01-30T07:06:27.574Z,97.4
2017-01-30T07:07:32.750Z,97.12
2017-01-30T07:08:38.911Z,97.12
2017-01-30T07:09:45.125Z,97.12
2017-01-30T07:10:50.258Z,97.12
2017-01-30T07:11:56.451Z,97.12
2017-01-30T07:13:01.638Z,96.92
2017-01-30T07:14:07.932Z,96.92
2017-01-30T07:15:13.029Z,97.12
2017-01-30T07:16:19.201Z,97.21
2017-01-30T07:17:25.371Z,97.21
2017-01-30T07:18:31.575Z,97.4
2017-01-30T07:19:35.804Z,97.21
2017-01-30T07:20:41.028Z,97.21
2017-01-30T07:21:45.228Z,96.92
2017-01-30T07:22:51.427Z,97.12
2017-01-30T07:23:56.610Z,97.12
2017-01-30T07:25:02.841Z,97.12
2017-01-30T07:26:09.014Z,96.92
2017-01-30T07:27:14.239Z,97.02
2017-01-30T07:28:20.397Z,97.21
2017-01-30T07:29:26.567Z,97.12
2017-01-30T07:30:32.830Z,97.02
2017-01-30T07:31:38.032Z,96.92
2017-01-30T07:32:42.239Z,97.12
2017-01-30T07:33:48.451Z,97.21
2017-01-30T07:34:52.677Z,96.83
2017-01-30T07:35:58.853Z,96.92
2017-01-30T07:37:04.066Z,97.12
2017-01-30T07:38:10.239Z,97.02
2017-01-30T07:39:14.437Z,96.92
2017-01-30T07:40:19.639Z,97.21
2017-01-30T07:41:23.867Z,97.02
2017-01-30T07:42:28.102Z,97.02
2017-01-30T07:43:34.297Z,97.02
2017-01-30T07:44:39.440Z,96.92
2017-01-30T07:45:45.596Z,97.02
2017-01-30T07:46:51.790Z,97.12
2017-01-30T07:47:55.994Z,97.12
2017-01-30T07:49:00.230Z,96.92
2017-01-30T07:50:05.422Z,97.02
2017-01-30T07:51:09.658Z,97.21
2017-01-30T07:52:15.824Z,97.21
2017-01-30T07:53:21.023Z,97.21
2017-01-30T07:54:26.223Z,97.21
2017-01-30T07:55:32.396Z,97.12
2017-01-30T07:56:37.564Z,97.5
2017-01-30T07:57:43.789Z,97.5
2017-01-30T07:58:48.993Z,97.31
2017-01-30T07:59:54.203Z,97.5
2017-01-30T08:01:00.372Z,97.4
2017-01-30T08:02:04.591Z,97.4
2017-01-30T08:03:09.794Z,97.21
2017-01-30T08:04:15.013Z,97.31
2017-01-30T08:05:18.298Z,97.21
2017-01-30T08:06:24.627Z,97.21
2017-01-30T08:07:28.857Z,97.31
2017-01-30T08:08:34.059Z,97.12
2017-01-30T08:09:37.312Z,97.31
2017-01-30T08:10:41.575Z,97.4
2017-01-30T08:11:46.846Z,97.4
2017-01-30T08:12:53.011Z,97.31
2017-01-30T08:13:59.183Z,97.4
2017-01-30T08:15:03.424Z,97.59
2017-01-30T08:16:09.591Z,97.5
2017-01-30T08:17:14.787Z,97.12
2017-01-30T08:18:19.036Z,97.4
2017-01-30T08:19:24.269Z,97.4
2017-01-30T08:20:29.481Z,97.4
2017-01-30T08:21:34.664Z,97.31
2017-01-30T08:22:38.862Z,97.21
2017-01-30T08:23:44.065Z,97.31
2017-01-30T08:24:49.345Z,97.45
2017-01-30T08:25:55.511Z,97.31
2017-01-30T08:27:01.796Z,97.88
2017-01-30T08:28:07.011Z,97.97
2017-01-30T08:29:13.175Z,97.88
2017-01-30T08:30:18.424Z,98.07
2017-01-30T08:31:23.604Z,97.59
2017-01-30T08:32:29.789Z,97.88
2017-01-30T08:33:34.986Z,97.83
2017-01-30T08:35:45.373Z,97.83
2017-01-30T08:36:50.541Z,97.88
2017-01-30T08:37:56.711Z,97.97
2017-01-30T08:39:02.925Z,97.97
2017-01-30T08:40:09.088Z,98.11
2017-01-30T08:41:13.321Z,97.88
2017-01-30T08:42:17.818Z,97.69
2017-01-30T08:43:21.985Z,97.92
2017-01-30T08:44:27.195Z,97.78
2017-01-30T08:45:32.396Z,97.59
2017-01-30T08:46:37.650Z,97.83
2017-01-30T08:47:42.823Z,98.54
2017-01-30T08:48:48.052Z,98.07
2017-01-30T08:49:54.196Z,97.69
2017-01-30T08:50:59.375Z,98.07
2017-01-30T08:52:05.589Z,98.73
2017-01-30T08:53:08.851Z,97.69
2017-01-30T08:54:13.054Z,97.45
2017-01-30T08:55:16.277Z,97.92
2017-01-30T08:56:20.515Z,98.11
2017-01-30T08:57:26.750Z,98.21
2017-01-30T08:58:31.958Z,98.02
2017-01-30T08:59:37.137Z,98.02
2017-01-30T09:00:43.321Z,98.02
2017-01-30T09:01:49.513Z,98.21
2017-01-30T09:02:55.659Z,98.11
2017-01-30T09:04:00.952Z,98.3
2017-01-30T09:05:07.122Z,98.02
2017-01-30T09:06:12.327Z,98.11
2017-01-30T09:07:18.490Z,98.11
2017-01-30T09:08:24.676Z,98.02
2017-01-30T09:09:29.871Z,97.45
2017-01-30T09:10:35.071Z,97.83
2017-01-30T09:11:40.274Z,98.11
2017-01-30T09:12:45.416Z,97.83
2017-01-30T09:13:51.600Z,98.11
2017-01-30T09:14:56.770Z,98.49
2017-01-30T09:16:01.963Z,98.59
2017-01-30T09:17:05.213Z,98.21
2017-01-30T09:18:11.381Z,98.3
2017-01-30T09:19:17.545Z,98.02
2017-01-30T09:20:22.761Z,97.74
2017-01-30T09:21:27.959Z,98.02
2017-01-30T09:22:34.116Z,98.11
2017-01-30T09:23:40.296Z,98.59
2017-01-30T09:24:45.586Z,97.92
2017-01-30T09:25:50.787Z,98.11
2017-01-30T09:26:56.963Z,97.92
2017-01-30T09:28:02.153Z,97.92
2017-01-30T09:29:07.352Z,97.83
2017-01-30T09:30:12.551Z,97.83
2017-01-30T09:31:17.733Z,98.02
2017-01-30T09:32:23.899Z,97.92
2017-01-30T09:33:29.143Z,97.83
2017-01-30T09:34:35.336Z,97.92
2017-01-30T09:35:39.538Z,97.83
2017-01-30T09:36:45.693Z,97.74
2017-01-30T09:37:50.896Z,97.83
2017-01-30T09:38:56.090Z,97.83
2017-01-30T09:40:00.663Z,97.6
2017-01-30T09:41:04.766Z,97.74
2017-01-30T09:42:08.043Z,97.83
2017-01-30T09:43:14.218Z,98.02
2017-01-30T09:44:19.390Z,97.92
2017-01-30T09:45:25.558Z,98.11
2017-01-30T09:46:30.763Z,97.74
2017-01-30T09:47:35.001Z,97.83
2017-01-30T09:48:40.175Z,97.97
2017-01-30T09:49:44.443Z,97.92
2017-01-30T09:50:50.578Z,97.92
2017-01-30T09:51:56.751Z,97.88
2017-01-30T09:53:01.972Z,97.78
2017-01-30T09:54:08.177Z,97.69
2017-01-30T09:55:14.297Z,98.16
2017-01-30T09:56:18.519Z,97.88
2017-01-30T09:57:23.705Z,97.5
2017-01-30T09:58:27.977Z,97.5
2017-01-30T09:59:33.162Z,97.88
2017-01-30T10:00:39.323Z,97.6
2017-01-30T10:01:45.489Z,97.6
2017-01-30T10:02:51.644Z,97.5
2017-01-30T10:03:57.793Z,97.31
2017-01-30T10:05:02.989Z,97.6
2017-01-30T10:06:06.202Z,97.41
2017-01-30T10:07:12.357Z,97.22
2017-01-30T10:08:18.509Z,98.16
2017-01-30T10:09:23.695Z,97.31
2017-01-30T10:10:27.981Z,97.5
2017-01-30T10:11:33.172Z,97.97
2017-01-30T10:12:38.511Z,97.6
2017-01-30T10:13:43.597Z,97.22
2017-01-30T10:14:49.751Z,97.31
2017-01-30T10:15:53.938Z,97.6
2017-01-30T10:16:58.153Z,97.97
2017-01-30T10:18:03.337Z,97.97
2017-01-30T10:19:07.557Z,97.97
2017-01-30T10:20:13.708Z,98.07
2017-01-30T10:21:19.866Z,97.31
2017-01-30T10:22:25.065Z,98.16
2017-01-30T10:23:31.215Z,98.26
2017-01-30T10:24:36.401Z,97.31
2017-01-30T10:25:42.560Z,98.26
2017-01-30T10:26:48.780Z,97.97
2017-01-30T10:27:54.930Z,97.97
2017-01-30T10:29:00.082Z,97.41
2017-01-30T10:30:06.287Z,98.07
2017-01-30T10:31:11.414Z,97.88
2017-01-30T10:32:16.596Z,97.6
2017-01-30T10:33:22.774Z,97.88
2017-01-30T10:34:29.077Z,97.5
2017-01-30T10:35:34.233Z,97.88
2017-01-30T10:36:37.463Z,97.41
2017-01-30T10:37:41.682Z,98.35
2017-01-30T10:38:47.832Z,98.07
2017-01-30T10:39:52.996Z,97.88
2017-01-30T10:40:59.158Z,97.78
2017-01-30T10:42:05.308Z,98.45
2017-01-30T10:43:11.465Z,98.07
2017-01-30T10:44:16.649Z,97.78
2017-01-30T10:45:21.839Z,97.88
2017-01-30T10:46:27.006Z,97.69
2017-01-30T10:47:33.158Z,98.26
2017-01-30T10:48:39.305Z,97.97
2017-01-30T10:49:43.495Z,97.5
2017-01-30T10:50:49.642Z,98.07
2017-01-30T10:51:54.802Z,97.41
2017-01-30T10:53:00.962Z,97.31
2017-01-30T10:54:07.113Z,97.41
2017-01-30T10:55:12.297Z,97.31
2017-01-30T10:56:16.718Z,97.31
2017-01-30T10:57:21.904Z,97.31
2017-01-30T10:58:26.120Z,97.41
2017-01-30T10:59:32.279Z,97.31
2017-01-30T11:00:37.462Z,97.41
2017-01-30T11:01:42.651Z,97.5
2017-01-30T11:02:47.870Z,97.31
2017-01-30T11:03:54.043Z,97.55
2017-01-30T11:04:58.369Z,97.41
2017-01-30T11:06:04.481Z,97.5
2017-01-30T11:07:09.684Z,97.5
2017-01-30T11:08:14.880Z,97.5
2017-01-30T11:09:19.126Z,97.41
2017-01-30T11:10:23.351Z,97.41
2017-01-30T11:11:29.604Z,97.45
2017-01-30T11:12:34.804Z,97.27
2017-01-30T11:13:40.984Z,97.55
2017-01-30T11:14:45.218Z,98.4
2017-01-30T11:15:50.427Z,98.12
2017-01-30T11:16:54.658Z,97.92
2017-01-30T11:18:00.823Z,97.55
2017-01-30T11:19:07.006Z,97.45
2017-01-30T11:20:13.167Z,97.45
2017-01-30T11:21:17.371Z,97.55
2017-01-30T11:22:21.588Z,97.36
2017-01-30T11:23:26.757Z,97.55
2017-01-30T11:24:29.130Z,97.64
2017-01-30T11:25:34.334Z,97.64
2017-01-30T11:26:40.606Z,97.55
2017-01-30T11:27:46.780Z,98.02
2017-01-30T11:28:52.946Z,97.45
2017-01-30T11:29:57.163Z,98.02
2017-01-30T11:31:02.335Z,98.21
2017-01-30T11:32:07.565Z,97.88
2017-01-30T11:33:12.767Z,98.02
2017-01-30T11:34:18.930Z,97.83
2017-01-30T11:35:25.095Z,98.02
2017-01-30T11:36:29.299Z,97.74
2017-01-30T11:37:34.479Z,98.59
2017-01-30T11:38:38.706Z,97.64
2017-01-30T11:39:42.911Z,97.83
2017-01-30T11:40:49.084Z,98.59
2017-01-30T11:41:54.287Z,98.12
2017-01-30T11:42:59.518Z,97.45
2017-01-30T11:44:05.675Z,97.74
2017-01-30T11:45:09.877Z,98.02
2017-01-30T11:46:15.085Z,97.92
2017-01-30T11:47:20.283Z,97.92
2017-01-30T11:48:24.544Z,98.21
2017-01-30T11:49:30.770Z,97.64
2017-01-30T11:50:33.044Z,97.64
2017-01-30T11:51:36.337Z,97.64
2017-01-30T11:52:40.606Z,98.12
2017-01-30T11:53:46.745Z,98.69
2017-01-30T11:54:52.908Z,97.83
2017-01-30T11:55:59.131Z,97.92
2017-01-30T11:57:04.341Z,98.5
2017-01-30T11:58:10.521Z,98.5
2017-01-30T11:59:15.691Z,98.59
2017-01-30T12:00:20.862Z,97.55
2017-01-30T12:01:26.068Z,97.92
2017-01-30T12:02:30.270Z,98.88
2017-01-30T12:03:35.487Z,98.21
2017-01-30T12:04:41.652Z,98.4
2017-01-30T12:05:47.831Z,98.02
2017-01-30T12:06:53.026Z,98.02
2017-01-30T12:07:58.230Z,98.59
2017-01-30T12:09:04.398Z,97.83
2017-01-30T12:10:10.571Z,98.02
2017-01-30T12:11:15.767Z,98.21
2017-01-30T12:12:22.187Z,97.74
2017-01-30T12:13:27.332Z,97.92
2017-01-30T12:14:33.517Z,98.02
2017-01-30T12:15:38.721Z,97.83
2017-01-30T12:16:44.896Z,97.83
2017-01-30T12:17:50.141Z,97.64
2017-01-30T12:18:52.420Z,97.74
2017-01-30T12:19:58.660Z,98.12
2017-01-30T12:21:02.022Z,97.55
2017-01-30T12:22:07.183Z,97.92
2017-01-30T12:23:10.426Z,97.92
2017-01-30T12:24:14.878Z,98.69
2017-01-30T12:25:21.054Z,98.31
2017-01-30T12:26:27.224Z,97.92
2017-01-30T12:27:32.491Z,98.5
2017-01-30T12:28:37.708Z,97.83
2017-01-30T12:29:42.049Z,97.92
2017-01-30T12:30:47.248Z,98.21
2017-01-30T12:31:52.414Z,98.12
2017-01-30T12:32:57.610Z,98.02
2017-01-30T12:34:02.798Z,98.12
2017-01-30T12:35:08.964Z,98.21
2017-01-30T12:36:14.274Z,98.59
2017-01-30T12:37:18.483Z,98.21
2017-01-30T12:38:22.717Z,98.79
2017-01-30T12:39:27.893Z,98.59
2017-01-30T12:40:34.121Z,98.59
2017-01-30T12:41:39.318Z,98.31
2017-01-30T12:42:42.569Z,98.31
2017-01-30T12:43:47.761Z,98.69
2017-01-30T12:44:52.957Z,98.59
2017-01-30T12:45:58.165Z,98.59
2017-01-30T12:47:04.377Z,98.31
2017-01-30T12:48:09.548Z,98.21
2017-01-30T12:49:14.739Z,98.31
2017-01-30T12:50:20.899Z,98.02
2017-01-30T12:51:27.065Z,98.12
2017-01-30T12:52:32.302Z,98.21
2017-01-30T12:53:36.562Z,98.02
2017-01-30T12:54:41.748Z,98.12
2017-01-30T12:55:46.014Z,98.12
2017-01-30T12:56:52.138Z,98.02
2017-01-30T12:57:57.338Z,98.4
2017-01-30T12:59:02.545Z,98.59
2017-01-30T13:00:07.793Z,98.12
2017-01-30T13:01:12.064Z,98.21
2017-01-30T13:02:16.267Z,98.21
2017-01-30T13:03:21.510Z,98.31
2017-01-30T13:04:26.715Z,98.59
2017-01-30T13:05:32.931Z,98.12
2017-01-30T13:06:36.170Z,98.59
2017-01-30T13:07:41.369Z,98.59
2017-01-30T13:08:46.571Z,98.26
2017-01-30T13:09:51.752Z,98.02
2017-01-30T13:10:56.955Z,98.07
2017-01-30T13:12:00.223Z,98.31
2017-01-30T13:13:03.460Z,98.02
2017-01-30T13:14:06.699Z,97.92
2017-01-30T13:15:12.875Z,98.21
2017-01-30T13:16:19.043Z,98.02
2017-01-30T13:17:25.206Z,98.4
2017-01-30T13:18:29.420Z,98.4
2017-01-30T13:19:34.643Z,98.45
2017-01-30T13:20:40.807Z,98.02
2017-01-30T13:21:45.011Z,98.31
2017-01-30T13:22:50.189Z,98.21
2017-01-30T13:23:56.364Z,97.45
2017-01-30T13:25:02.540Z,98.69
2017-01-30T13:26:08.702Z,98.5
2017-01-30T13:27:13.896Z,97.83
2017-01-30T13:28:20.082Z,97.83
2017-01-30T13:29:25.274Z,97.64
2017-01-30T13:30:31.446Z,98.02
2017-01-30T13:31:36.643Z,98.12
2017-01-30T13:32:41.943Z,98.21
2017-01-30T13:33:47.212Z,98.21
2017-01-30T13:34:52.467Z,97.92
2017-01-30T13:35:58.651Z,98.5
2017-01-30T13:37:04.805Z,97.45
2017-01-30T13:38:10.986Z,98.21
2017-01-30T13:39:16.178Z,97.64
2017-01-30T13:40:22.348Z,97.92
2017-01-30T13:41:27.577Z,98.02
2017-01-30T13:42:32.743Z,97.83
2017-01-30T13:43:37.016Z,98.07
2017-01-30T13:44:43.152Z,98.74
2017-01-30T13:45:49.323Z,97.97
2017-01-30T13:46:55.497Z,97.74
2017-01-30T13:48:01.660Z,98.17
2017-01-30T13:49:07.829Z,97.83
2017-01-30T13:50:13.997Z,98.26
2017-01-30T13:51:19.239Z,97.69
2017-01-30T13:52:24.396Z,98.31
2017-01-30T13:53:28.672Z,98.02
2017-01-30T13:54:33.868Z,97.92
2017-01-30T13:55:38.116Z,97.69
2017-01-30T13:56:42.353Z,98.21
2017-01-30T13:57:47.652Z,98.4
2017-01-30T13:58:52.808Z,98.17
2017-01-30T13:59:58.009Z,97.64
2017-01-30T14:01:03.220Z,98.02
2017-01-30T14:02:09.425Z,97.92
2017-01-30T14:03:15.578Z,97.92
2017-01-30T14:04:17.875Z,98.17
2017-01-30T14:05:23.067Z,98.21
2017-01-30T14:06:28.241Z,97.64
2017-01-30T14:07:33.440Z,98.88
2017-01-30T14:08:39.609Z,98.88
2017-01-30T14:09:45.772Z,97.64